createdAt,value
2019-01-16T02:31:57.252Z,99466.78
2019-01-16T02:34:48.137Z,99474.50
2019-01-16T02:37:39.474Z,99460.62
2019-01-16T02:40:32.322Z,99462.73
2019-01-16T02:43:25.367Z,99460.17
2019-01-16T02:46:16.456Z,99455.50
2019-01-16T02:48:57.255Z,99456.18
2019-01-16T02:51:55.428Z,99457.94
2019-01-16T02:54:43.784Z,99459.44
2019-01-16T02:57:28.206Z,99449.39
2019-01-16T03:00:12.807Z,99445.70
2019-01-16T03:03:11.477Z,99448.01
2019-01-16T03:06:16.329Z,99436.05
2019-01-16T03:08:57.949Z,99429.53
2019-01-16T03:11:49.469Z,99424.41
2019-01-16T03:14:48.337Z,99427.42
2019-01-16T03:17:41.275Z,99419.95
2019-01-16T03:20:32.392Z,99423.50
2019-01-16T03:23:25.468Z,99427.83
2019-01-16T03:26:18.507Z,99403.16
2019-01-16T03:29:14.364Z,99398.34
2019-01-16T03:32:03.809Z,99405.09
2019-01-16T03:35:05.056Z,99401.77
2019-01-16T03:38:00.214Z,99401.55
2019-01-16T03:40:51.607Z,99400.13
2019-01-16T03:43:43.060Z,99397.55
2019-01-16T03:46:28.717Z,99389.08
2019-01-16T03:49:20.539Z,99394.80
2019-01-16T03:52:27.746Z,99383.67
2019-01-16T03:55:17.577Z,99375.65
2019-01-16T03:58:22.132Z,99384.23
2019-01-16T04:01:05.053Z,99382.41
2019-01-16T04:04:08.838Z,99389.64
2019-01-16T04:07:15.087Z,99375.69
2019-01-16T04:10:10.611Z,99379.62
2019-01-16T04:13:21.956Z,99373.22
2019-01-16T04:16:18.033Z,99372.52
2019-01-16T04:19:09.103Z,99375.02
2019-01-16T04:22:00.270Z,99364.20
2019-01-16T04:24:57.344Z,99368.77
2019-01-16T04:27:52.431Z,99361.94
2019-01-16T04:30:50.603Z,99360.73
2019-01-16T04:33:55.769Z,99352.50
2019-01-16T04:36:48.705Z,99353.83
2019-01-16T04:39:40.446Z,99350.84
2019-01-16T04:42:22.647Z,99344.80
2019-01-16T04:45:24.531Z,99344.80
2019-01-16T04:48:19.908Z,99337.05
2019-01-16T04:51:22.928Z,99336.34
2019-01-16T04:54:14.735Z,99332.48
2019-01-16T04:57:15.823Z,99338.53
2019-01-16T05:00:11.920Z,99330.14
2019-01-16T05:03:07.266Z,99327.00
2019-01-16T05:06:02.159Z,99319.61
2019-01-16T05:08:55.183Z,99327.12
2019-01-16T05:11:47.006Z,99318.95
2019-01-16T05:14:33.502Z,99316.13
2019-01-16T05:17:24.225Z,99326.85
2019-01-16T05:20:15.426Z,99321.93
2019-01-16T05:23:20.276Z,99322.84
2019-01-16T05:26:12.202Z,99313.82
2019-01-16T05:29:03.522Z,99314.66
2019-01-16T05:32:14.253Z,99314.73
2019-01-16T05:35:13.301Z,99305.95
2019-01-16T05:38:11.572Z,99323.08
2019-01-16T05:41:04.151Z,99310.00
2019-01-16T05:44:03.903Z,99306.71
2019-01-16T05:47:02.638Z,99297.92
2019-01-16T05:49:55.053Z,99292.23
2019-01-16T05:52:46.924Z,99285.40
2019-01-16T05:55:57.840Z,99286.20
2019-01-16T05:59:08.959Z,99285.48
2019-01-16T06:02:04.076Z,99285.98
2019-01-16T06:05:09.202Z,99281.01
2019-01-16T06:08:07.605Z,99283.89
2019-01-16T06:10:55.830Z,99284.25
2019-01-16T06:13:39.689Z,99280.62
2019-01-16T06:16:31.605Z,99272.81
2019-01-16T06:19:17.746Z,99270.18
2019-01-16T06:22:13.534Z,99263.42
2019-01-16T06:25:08.603Z,99268.20
2019-01-16T06:28:00.768Z,99273.38
2019-01-16T06:30:48.795Z,99266.39
2019-01-16T06:33:43.626Z,99265.83
2019-01-16T06:36:36.557Z,99256.70
2019-01-16T06:39:18.253Z,99254.72
2019-01-16T06:42:00.566Z,99271.79
2019-01-16T06:44:51.916Z,99266.20
2019-01-16T06:47:44.990Z,99263.20
2019-01-16T06:50:40.367Z,99266.45
2019-01-16T06:53:46.068Z,99267.37
2019-01-16T06:56:41.319Z,99279.95
2019-01-16T06:59:23.421Z,99270.07
2019-01-16T07:02:27.099Z,99268.48
2019-01-16T07:05:20.088Z,99272.62
2019-01-16T07:08:29.879Z,99273.28
2019-01-16T07:11:46.935Z,99282.34
2019-01-16T07:14:44.446Z,99271.59
2019-01-16T07:17:43.085Z,99272.06
2019-01-16T07:20:45.170Z,99268.89
2019-01-16T07:23:40.308Z,99267.25
2019-01-16T07:26:37.211Z,99259.28
2019-01-16T07:29:48.121Z,99268.89
2019-01-16T07:33:19.011Z,99276.34
2019-01-16T07:36:27.580Z,99270.03
2019-01-16T07:39:36.502Z,99269.16
2019-01-16T07:42:46.900Z,99274.91
2019-01-16T07:46:03.607Z,99269.12
2019-01-16T07:49:16.623Z,99275.79
2019-01-16T07:52:20.080Z,99275.72
2019-01-16T07:55:23.832Z,99279.69
2019-01-16T07:58:32.751Z,99278.34
2019-01-16T08:01:31.753Z,99277.98
2019-01-16T08:04:26.251Z,99281.19
2019-01-16T08:07:19.292Z,99276.98
2019-01-16T08:10:14.667Z,99280.23
2019-01-16T08:13:25.441Z,99282.50
2019-01-16T08:16:38.572Z,99272.20
2019-01-16T08:19:45.171Z,99274.91
2019-01-16T08:22:46.322Z,99275.98
2019-01-16T08:25:42.935Z,99272.65
2019-01-16T08:32:21.218Z,99267.56
2019-01-16T08:35:56.710Z,99269.47
2019-01-16T08:42:18.837Z,99261.97
2019-01-16T08:45:29.408Z,99267.77
2019-01-16T08:48:44.360Z,99265.19
2019-01-16T08:51:35.983Z,99261.77
2019-01-16T08:54:31.194Z,99266.73
2019-01-16T08:57:31.444Z,99261.13
2019-01-16T09:00:29.811Z,99258.43
2019-01-16T09:03:28.938Z,99244.80
2019-01-16T09:06:35.545Z,99247.06
2019-01-16T09:09:35.720Z,99241.20
2019-01-16T09:12:40.710Z,99243.94
2019-01-16T09:15:51.615Z,99233.05
2019-01-16T09:18:53.680Z,99228.08
2019-01-16T09:21:49.821Z,99216.35
2019-01-16T09:24:47.284Z,99214.08
2019-01-16T09:27:45.312Z,99227.80
2019-01-16T09:31:10.726Z,99214.22
2019-01-16T09:34:38.164Z,99215.58
2019-01-16T09:37:22.917Z,99214.28
2019-01-16T09:40:14.099Z,99211.59
2019-01-16T09:43:13.054Z,99211.95
2019-01-16T09:49:36.237Z,99216.20
2019-01-16T09:52:32.199Z,99210.43
2019-01-16T09:58:53.875Z,99207.23
2019-01-16T10:02:02.521Z,99213.50
2019-01-16T10:05:01.261Z,99200.63
2019-01-16T10:14:50.992Z,99182.86
2019-01-16T10:17:52.662Z,99174.05
2019-01-16T10:20:56.175Z,99184.43
2019-01-16T10:24:11.180Z,99180.15
2019-01-16T10:27:12.028Z,99184.19
2019-01-16T10:30:17.345Z,99167.81
2019-01-16T10:33:14.750Z,99168.07
2019-01-16T10:36:20.536Z,99162.87
2019-01-16T10:39:17.642Z,99158.25
2019-01-16T10:42:09.740Z,99153.35
2019-01-16T10:45:29.352Z,99148.64
2019-01-16T10:48:29.572Z,99149.36
2019-01-16T10:51:23.964Z,99137.84
2019-01-16T10:54:25.203Z,99136.42
2019-01-16T10:57:16.845Z,99132.10
2019-01-16T11:00:07.934Z,99132.23
2019-01-16T11:02:59.659Z,99129.80
2019-01-16T11:05:59.501Z,99122.68
2019-01-16T11:09:04.365Z,99116.16
2019-01-16T11:11:57.807Z,99124.26
2019-01-16T11:14:49.317Z,99111.34
2019-01-16T11:17:42.498Z,99115.39
2019-01-16T11:20:44.231Z,99112.23
2019-01-16T11:23:39.344Z,99107.09
2019-01-16T11:26:34.775Z,99105.41
2019-01-16T11:29:35.196Z,99116.41
2019-01-16T11:32:26.223Z,99098.83
2019-01-16T11:35:24.587Z,99091.42
2019-01-16T11:38:22.987Z,99099.88
2019-01-16T11:41:21.124Z,99088.48
2019-01-16T11:44:20.224Z,99082.98
2019-01-16T11:47:12.543Z,99091.34
2019-01-16T11:50:20.799Z,99084.66
2019-01-16T11:53:16.324Z,99086.77
2019-01-16T11:56:07.763Z,99075.83
2019-01-16T11:59:06.028Z,99079.11
2019-01-16T12:01:51.899Z,99059.71
2019-01-16T12:04:39.026Z,99058.48
2019-01-16T12:07:19.726Z,99063.69
2019-01-16T12:10:24.147Z,99048.19
2019-01-16T12:13:16.688Z,99034.25
2019-01-16T12:16:07.222Z,99053.58
2019-01-16T12:19:10.728Z,99046.83
2019-01-16T12:25:23.208Z,99050.88
2019-01-16T12:28:15.043Z,99034.11
2019-01-16T12:31:09.332Z,99032.34
2019-01-16T12:34:12.338Z,99037.39
2019-01-16T12:37:09.980Z,99030.35
2019-01-16T12:40:07.644Z,99028.86
2019-01-16T12:43:19.460Z,99020.77
2019-01-16T12:46:15.995Z,99020.42
2019-01-16T12:49:34.634Z,99003.02
2019-01-16T12:52:34.457Z,99012.33
2019-01-16T12:55:32.233Z,99011.89
2019-01-16T12:58:41.310Z,98995.61
2019-01-16T13:01:48.037Z,98994.42
2019-01-16T13:04:43.565Z,98993.63
2019-01-16T13:07:44.398Z,98987.25
2019-01-16T13:10:48.403Z,98983.77
2019-01-16T13:13:44.767Z,98968.06
2019-01-16T13:16:34.745Z,98968.16
2019-01-16T13:19:38.432Z,98978.72
2019-01-16T13:22:22.807Z,98963.09
2019-01-16T13:25:21.569Z,98954.00
2019-01-16T13:28:14.325Z,98950.02
2019-01-16T13:31:07.021Z,98943.08
2019-01-16T13:33:49.472Z,98948.91
2019-01-16T13:36:33.058Z,98929.23
2019-01-16T13:39:36.050Z,98939.66
2019-01-16T13:42:19.969Z,98933.64
2019-01-16T13:45:18.170Z,98923.97
2019-01-16T13:48:10.670Z,98925.91
2019-01-16T13:51:21.575Z,98914.95
2019-01-16T13:54:11.993Z,98918.14
2019-01-16T13:57:08.587Z,98928.87
2019-01-16T14:00:00.633Z,98914.88
2019-01-16T14:03:11.711Z,98911.27
2019-01-16T14:06:07.667Z,98909.48
2019-01-16T14:09:21.559Z,98894.52
2019-01-16T14:12:18.343Z,98902.91
2019-01-16T14:15:30.837Z,98903.04
2019-01-16T14:18:27.492Z,98896.92
2019-01-16T14:21:21.582Z,98892.97
2019-01-16T14:24:19.755Z,98905.17
2019-01-16T14:27:22.436Z,98902.05
2019-01-16T14:30:26.633Z,98895.50
2019-01-16T14:33:09.904Z,98878.89
2019-01-16T14:36:05.513Z,98868.23
2019-01-16T14:39:11.725Z,98849.94
2019-01-16T14:42:03.440Z,98833.27
2019-01-16T14:44:59.016Z,98847.73
2019-01-16T14:47:59.142Z,98846.59
2019-01-16T14:50:48.529Z,98856.62
2019-01-16T14:53:49.212Z,98870.44
2019-01-16T14:56:49.226Z,98866.48
2019-01-16T14:59:33.933Z,98847.38
2019-01-16T15:02:46.079Z,98856.95
2019-01-16T15:05:51.883Z,98856.13
2019-01-16T15:08:38.842Z,98853.00
2019-01-16T15:11:34.746Z,98844.25
2019-01-16T15:14:35.791Z,98813.34
2019-01-16T15:17:27.298Z,98823.34
2019-01-16T15:20:26.417Z,98814.16
2019-01-16T15:23:13.249Z,98830.08
2019-01-16T15:26:08.460Z,98829.95
2019-01-16T15:28:59.540Z,98823.97
2019-01-16T15:31:56.689Z,98816.30
2019-01-16T15:34:48.102Z,98802.83
2019-01-16T15:37:29.408Z,98802.83
2019-01-16T15:40:21.420Z,98805.31
2019-01-16T15:43:31.954Z,98800.06
2019-01-16T15:46:33.868Z,98797.85
2019-01-16T15:49:24.855Z,98795.45
2019-01-16T15:52:16.498Z,98778.50
2019-01-16T15:55:09.497Z,98780.14
2019-01-16T15:58:11.534Z,98791.13
2019-01-16T16:01:04.267Z,98786.74
2019-01-16T16:04:02.773Z,98794.54
2019-01-16T16:06:53.149Z,98798.52
2019-01-16T16:09:56.246Z,98788.52
2019-01-16T16:12:38.974Z,98778.16
2019-01-16T16:15:37.553Z,98765.61
2019-01-16T16:18:28.241Z,98758.37
2019-01-16T16:21:30.619Z,98757.09
2019-01-16T16:24:13.760Z,98757.88
2019-01-16T16:27:12.673Z,98734.32
2019-01-16T16:30:04.744Z,98747.23
2019-01-16T16:32:56.030Z,98728.93
2019-01-16T16:36:02.847Z,98726.23
2019-01-16T16:38:56.397Z,98722.06
2019-01-16T16:42:04.116Z,98712.63
2019-01-16T16:44:58.473Z,98706.52
2019-01-16T16:47:49.462Z,98695.34
2019-01-16T16:50:43.052Z,98704.19
2019-01-16T16:53:34.946Z,98702.47
2019-01-16T16:56:29.108Z,98705.95
2019-01-16T16:59:25.778Z,98705.45
2019-01-16T17:02:37.538Z,98701.48
2019-01-16T17:05:44.648Z,98703.19
2019-01-16T17:08:45.780Z,98700.91
2019-01-16T17:11:55.642Z,98698.16
2019-01-16T17:14:51.406Z,98687.21
2019-01-16T17:17:48.257Z,98697.30
2019-01-16T17:20:43.959Z,98690.45
2019-01-16T17:23:39.692Z,98700.84
2019-01-16T17:26:30.785Z,98680.70
2019-01-16T17:29:23.149Z,98687.44
2019-01-16T17:32:14.785Z,98670.34
2019-01-16T17:35:21.642Z,98671.46
2019-01-16T17:38:17.676Z,98660.68
2019-01-16T17:41:18.521Z,98651.41
2019-01-16T17:44:22.333Z,98648.72
2019-01-16T17:47:20.450Z,98663.17
2019-01-16T17:50:19.882Z,98650.18
2019-01-16T17:53:09.143Z,98652.52
2019-01-16T17:55:56.589Z,98657.12
2019-01-16T17:58:50.177Z,98648.27
2019-01-16T18:01:42.103Z,98645.97
2019-01-16T18:04:31.704Z,98641.92
2019-01-16T18:07:31.780Z,98643.58
2019-01-16T18:10:16.350Z,98626.90
2019-01-16T18:13:13.225Z,98634.06
2019-01-16T18:16:12.499Z,98644.23
2019-01-16T18:19:05.374Z,98633.84
2019-01-16T18:22:00.255Z,98633.64
2019-01-16T18:24:58.842Z,98631.37
2019-01-16T18:27:52.829Z,98627.33
2019-01-16T18:30:46.630Z,98637.69
2019-01-16T18:33:39.952Z,98634.31
2019-01-16T18:36:40.633Z,98630.95
2019-01-16T18:39:53.586Z,98626.98
2019-01-16T18:42:58.263Z,98622.94
2019-01-16T18:45:46.512Z,98612.38
2019-01-16T18:48:57.846Z,98607.97
2019-01-16T18:51:56.696Z,98608.53
2019-01-16T18:55:05.636Z,98603.31
2019-01-16T18:57:52.253Z,98608.59
2019-01-16T19:01:10.679Z,98603.93
2019-01-16T19:03:55.355Z,98600.87
2019-01-16T19:06:53.148Z,98583.40
2019-01-16T19:09:50.489Z,98583.66
2019-01-16T19:13:04.598Z,98577.45
2019-01-16T19:15:55.791Z,98583.66
2019-01-16T19:19:14.700Z,98579.61
2019-01-16T19:22:17.995Z,98574.53
2019-01-16T19:25:10.398Z,98569.95
2019-01-16T19:28:09.855Z,98569.95
2019-01-16T19:31:08.045Z,98568.05
2019-01-16T19:34:15.120Z,98565.30
2019-01-16T19:37:20.617Z,98572.38
2019-01-16T19:40:14.601Z,98574.53
2019-01-16T19:43:10.516Z,98561.27
2019-01-16T19:46:27.148Z,98553.92
2019-01-16T19:49:20.253Z,98556.39
2019-01-16T19:52:23.028Z,98550.48
2019-01-16T19:55:23.124Z,98540.44
2019-01-16T19:58:28.200Z,98532.97
2019-01-16T20:01:22.527Z,98518.70
2019-01-16T20:04:27.304Z,98510.98
2019-01-16T20:07:26.058Z,98522.70
2019-01-16T20:10:43.118Z,98510.05
2019-01-16T20:13:43.796Z,98516.28
2019-01-16T20:16:43.536Z,98519.53
2019-01-16T20:19:41.129Z,98521.72
2019-01-16T20:22:44.947Z,98504.98
2019-01-16T20:25:48.716Z,98514.42
2019-01-16T20:29:02.831Z,98510.38
2019-01-16T20:31:55.736Z,98499.36
2019-01-16T20:34:52.808Z,98494.71
2019-01-16T20:37:50.768Z,98496.67
2019-01-16T20:40:45.536Z,98488.02
2019-01-16T20:43:39.537Z,98481.98
2019-01-16T20:46:56.703Z,98484.67
2019-01-16T20:50:04.482Z,98469.60
2019-01-16T20:53:10.676Z,98477.28
2019-01-16T20:56:04.773Z,98478.44
2019-01-16T20:59:18.210Z,98480.95
2019-01-16T21:02:28.652Z,98475.41
2019-01-16T21:05:41.441Z,98460.11
2019-01-16T21:08:33.078Z,98454.91
2019-01-16T21:11:17.100Z,98459.42
2019-01-16T21:14:19.244Z,98445.80
2019-01-16T21:17:17.756Z,98438.83
2019-01-16T21:20:22.556Z,98434.86
2019-01-16T21:23:23.942Z,98438.68
2019-01-16T21:26:20.660Z,98438.16
2019-01-16T21:29:20.417Z,98437.55
2019-01-16T21:32:13.928Z,98429.96
2019-01-16T21:35:10.003Z,98427.56
2019-01-16T21:38:14.285Z,98418.34
2019-01-16T21:41:13.167Z,98418.13
2019-01-16T21:44:06.215Z,98413.14
2019-01-16T21:47:19.691Z,98414.91
2019-01-16T21:50:30.866Z,98409.73
2019-01-16T21:53:32.554Z,98396.44
2019-01-16T21:56:34.571Z,98397.55
2019-01-16T21:59:39.695Z,98401.23
2019-01-16T22:02:32.738Z,98408.34
2019-01-16T22:05:24.199Z,98394.86
2019-01-16T22:08:46.481Z,98394.64
2019-01-16T22:12:01.987Z,98384.41
2019-01-16T22:14:48.160Z,98379.02
2019-01-16T22:17:39.159Z,98396.77
2019-01-16T22:20:34.261Z,98386.88
2019-01-16T22:23:26.853Z,98388.80
2019-01-16T22:26:17.357Z,98379.36
2019-01-16T22:29:12.380Z,98365.88
2019-01-16T22:31:57.398Z,98369.50
2019-01-16T22:34:48.778Z,98362.35
2019-01-16T22:37:47.441Z,98358.94
2019-01-16T22:40:39.745Z,98377.64
2019-01-16T22:43:31.101Z,98358.91
2019-01-16T22:46:19.267Z,98343.29
2019-01-16T22:49:14.792Z,98342.62
2019-01-16T22:52:19.729Z,98332.25
2019-01-16T22:55:11.683Z,98319.14
2019-01-16T22:58:02.705Z,98320.48
2019-01-16T23:01:00.177Z,98323.89
2019-01-16T23:03:47.984Z,98313.86
2019-01-16T23:06:43.493Z,98325.54
2019-01-16T23:09:34.504Z,98320.60
2019-01-16T23:12:25.597Z,98309.78
2019-01-16T23:15:20.245Z,98304.13
2019-01-16T23:18:12.373Z,98315.98
2019-01-16T23:21:06.382Z,98306.52
2019-01-16T23:24:28.660Z,98304.59
2019-01-16T23:27:27.821Z,98300.81
2019-01-16T23:30:26.698Z,98290.45
2019-01-16T23:33:43.609Z,98290.86
2019-01-16T23:36:36.943Z,98295.16
2019-01-16T23:39:36.863Z,98282.08
2019-01-16T23:42:35.905Z,98287.53
2019-01-16T23:45:31.085Z,98291.20
2019-01-16T23:48:35.855Z,98283.77
2019-01-16T23:51:36.568Z,98271.97
2019-01-16T23:54:28.745Z,98269.16
2019-01-16T23:57:24.760Z,98272.38
